sensor_id;sensor_type;location;lat;lon;timestamp;P1;durP1;ratioP1;P2;durP2;ratioP2
35839;SDS011;35514;50.504;30.500;2023-02-01T01:19:59;21.15;;;6.38;;
35839;SDS011;35514;50.504;30.500;2023-02-01T01:22:27;19.67;;;6.60;;
35839;SDS011;35514;50.504;30.500;2023-02-01T01:24:54;13.70;;;6.25;;
35839;SDS011;35514;50.504;30.500;2023-02-01T01:27:22;18.77;;;6.45;;
35839;SDS011;35514;50.504;30.500;2023-02-01T01:29:51;21.25;;;6.32;;
35839;SDS011;35514;50.504;30.500;2023-02-01T01:32:18;25.77;;;8.57;;
35839;SDS011;35514;50.504;30.500;2023-02-01T01:34:46;21.98;;;8.43;;
35839;SDS011;35514;50.504;30.500;2023-02-01T01:37:15;35.53;;;9.50;;
35839;SDS011;35514;50.504;30.500;2023-02-01T01:39:43;28.83;;;8.10;;
35839;SDS011;35514;50.504;30.500;2023-02-01T01:42:10;24.63;;;7.40;;
35839;SDS011;35514;50.504;30.500;2023-02-01T01:44:59;25.30;;;8.07;;
35839;SDS011;35514;50.504;30.500;2023-02-01T01:47:28;20.42;;;7.53;;
35839;SDS011;35514;50.504;30.500;2023-02-01T01:49:56;21.52;;;6.72;;
35839;SDS011;35514;50.504;30.500;2023-02-01T01:52:25;17.83;;;6.38;;
35839;SDS011;35514;50.504;30.500;2023-02-01T01:54:52;27.20;;;8.90;;
35839;SDS011;35514;50.504;30.500;2023-02-01T01:57:22;23.08;;;7.85;;
35839;SDS011;35514;50.504;30.500;2023-02-01T01:59:53;22.65;;;7.65;;
35839;SDS011;35514;50.504;30.500;2023-02-01T02:02:21;21.25;;;7.70;;
35839;SDS011;35514;50.504;30.500;2023-02-01T02:04:49;21.05;;;7.50;;
35839;SDS011;35514;50.504;30.500;2023-02-01T02:07:17;16.02;;;7.57;;
35839;SDS011;35514;50.504;30.500;2023-02-01T02:09:48;16.40;;;6.93;;
35839;SDS011;35514;50.504;30.500;2023-02-01T02:12:25;22.42;;;7.93;;
35839;SDS011;35514;50.504;30.500;2023-02-01T02:14:53;21.95;;;7.13;;
35839;SDS011;35514;50.504;30.500;2023-02-01T02:17:27;28.98;;;8.50;;
35839;SDS011;35514;50.504;30.500;2023-02-01T02:22:55;24.92;;;7.40;;
35839;SDS011;35514;50.504;30.500;2023-02-01T02:28:21;26.05;;;8.18;;
35839;SDS011;35514;50.504;30.500;2023-02-01T02:31:08;16.05;;;6.93;;
35839;SDS011;35514;50.504;30.500;2023-02-01T02:33:48;19.77;;;7.15;;
35839;SDS011;35514;50.504;30.500;2023-02-01T02:36:20;17.73;;;6.65;;
35839;SDS011;35514;50.504;30.500;2023-02-01T02:38:53;22.75;;;8.02;;
35839;SDS011;35514;50.504;30.500;2023-02-01T02:41:24;20.60;;;8.25;;
35839;SDS011;35514;50.504;30.500;2023-02-01T02:44:13;25.92;;;8.30;;
35839;SDS011;35514;50.504;30.500;2023-02-01T02:47:13;21.25;;;8.05;;
35839;SDS011;35514;50.504;30.500;2023-02-01T02:49:56;28.17;;;8.57;;
35839;SDS011;35514;50.504;30.500;2023-02-01T02:52:56;25.05;;;8.18;;
35839;SDS011;35514;50.504;30.500;2023-02-01T02:55:42;32.47;;;9.45;;
35839;SDS011;35514;50.504;30.500;2023-02-01T02:58:10;23.15;;;8.95;;
35839;SDS011;35514;50.504;30.500;2023-02-01T03:00:55;31.23;;;11.25;;
35839;SDS011;35514;50.504;30.500;2023-02-01T03:03:41;37.67;;;10.98;;
35839;SDS011;35514;50.504;30.500;2023-02-01T03:06:28;27.92;;;11.02;;
35839;SDS011;35514;50.504;30.500;2023-02-01T03:08:56;30.35;;;9.75;;
35839;SDS011;35514;50.504;30.500;2023-02-01T03:11:25;41.88;;;12.00;;
35839;SDS011;35514;50.504;30.500;2023-02-01T03:14:14;36.88;;;10.93;;
35839;SDS011;35514;50.504;30.500;2023-02-01T03:16:43;32.92;;;10.30;;
35839;SDS011;35514;50.504;30.500;2023-02-01T03:19:14;35.30;;;10.05;;
35839;SDS011;35514;50.504;30.500;2023-02-01T03:21:45;26.90;;;9.10;;
35839;SDS011;35514;50.504;30.500;2023-02-01T03:24:17;27.35;;;9.20;;
35839;SDS011;35514;50.504;30.500;2023-02-01T03:26:48;28.60;;;8.90;;
35839;SDS011;35514;50.504;30.500;2023-02-01T03:29:18;36.58;;;9.27;;
35839;SDS011;35514;50.504;30.500;2023-02-01T03:31:48;31.45;;;9.50;;
35839;SDS011;35514;50.504;30.500;2023-02-01T03:34:16;27.98;;;8.70;;
35839;SDS011;35514;50.504;30.500;2023-02-01T03:36:46;40.00;;;9.73;;
35839;SDS011;35514;50.504;30.500;2023-02-01T03:39:15;31.27;;;9.98;;
35839;SDS011;35514;50.504;30.500;2023-02-01T03:41:46;38.25;;;11.23;;
35839;SDS011;35514;50.504;30.500;2023-02-01T03:44:16;35.95;;;10.18;;
35839;SDS011;35514;50.504;30.500;2023-02-01T03:46:47;26.55;;;7.70;;
35839;SDS011;35514;50.504;30.500;2023-02-01T03:49:17;33.30;;;9.82;;
35839;SDS011;35514;50.504;30.500;2023-02-01T03:51:47;36.15;;;9.80;;
35839;SDS011;35514;50.504;30.500;2023-02-01T03:54:15;31.52;;;8.98;;
35839;SDS011;35514;50.504;30.500;2023-02-01T03:56:45;49.50;;;10.73;;
35839;SDS011;35514;50.504;30.500;2023-02-01T03:59:14;35.35;;;10.45;;
35839;SDS011;35514;50.504;30.500;2023-02-01T04:01:42;28.17;;;10.18;;
35839;SDS011;35514;50.504;30.500;2023-02-01T04:04:09;21.95;;;8.52;;
35839;SDS011;35514;50.504;30.500;2023-02-01T04:06:37;32.15;;;10.02;;
35839;SDS011;35514;50.504;30.500;2023-02-01T04:09:05;31.27;;;9.85;;
35839;SDS011;35514;50.504;30.500;2023-02-01T04:11:33;31.23;;;9.18;;
35839;SDS011;35514;50.504;30.500;2023-02-01T04:14:01;32.40;;;9.05;;
35839;SDS011;35514;50.504;30.500;2023-02-01T04:16:30;24.52;;;8.50;;
35839;SDS011;35514;50.504;30.500;2023-02-01T04:18:58;31.42;;;10.00;;
35839;SDS011;35514;50.504;30.500;2023-02-01T04:21:26;28.27;;;9.82;;
35839;SDS011;35514;50.504;30.500;2023-02-01T04:23:54;34.92;;;9.65;;
35839;SDS011;35514;50.504;30.500;2023-02-01T04:26:23;30.33;;;9.38;;
35839;SDS011;35514;50.504;30.500;2023-02-01T04:28:50;35.83;;;9.98;;
35839;SDS011;35514;50.504;30.500;2023-02-01T04:31:19;38.70;;;10.57;;
35839;SDS011;35514;50.504;30.500;2023-02-01T04:33:52;33.67;;;9.55;;
35839;SDS011;35514;50.504;30.500;2023-02-01T04:36:19;36.22;;;10.02;;
35839;SDS011;35514;50.504;30.500;2023-02-01T04:38:48;31.95;;;10.20;;
35839;SDS011;35514;50.504;30.500;2023-02-01T04:41:15;37.95;;;12.20;;
35839;SDS011;35514;50.504;30.500;2023-02-01T04:43:46;38.15;;;10.98;;
35839;SDS011;35514;50.504;30.500;2023-02-01T04:46:13;27.80;;;9.77;;
35839;SDS011;35514;50.504;30.500;2023-02-01T04:48:41;45.53;;;11.18;;
35839;SDS011;35514;50.504;30.500;2023-02-01T04:51:09;39.95;;;10.55;;
35839;SDS011;35514;50.504;30.500;2023-02-01T04:53:37;25.77;;;10.27;;
35839;SDS011;35514;50.504;30.500;2023-02-01T04:56:11;40.25;;;12.30;;
35839;SDS011;35514;50.504;30.500;2023-02-01T05:01:07;28.40;;;8.48;;
35839;SDS011;35514;50.504;30.500;2023-02-01T05:03:35;33.28;;;9.85;;
35839;SDS011;35514;50.504;30.500;2023-02-01T05:06:02;34.92;;;8.98;;
35839;SDS011;35514;50.504;30.500;2023-02-01T05:08:31;35.05;;;10.63;;
35839;SDS011;35514;50.504;30.500;2023-02-01T05:10:59;26.33;;;8.82;;
35839;SDS011;35514;50.504;30.500;2023-02-01T05:13:28;37.50;;;10.60;;
35839;SDS011;35514;50.504;30.500;2023-02-01T05:16:15;35.95;;;11.38;;
35839;SDS011;35514;50.504;30.500;2023-02-01T05:18:43;28.00;;;9.60;;
35839;SDS011;35514;50.504;30.500;2023-02-01T05:21:10;32.22;;;9.95;;
35839;SDS011;35514;50.504;30.500;2023-02-01T05:23:40;22.08;;;8.70;;
35839;SDS011;35514;50.504;30.500;2023-02-01T05:26:21;26.73;;;9.18;;
35839;SDS011;35514;50.504;30.500;2023-02-01T05:28:49;26.83;;;8.77;;
35839;SDS011;35514;50.504;30.500;2023-02-01T05:31:21;26.80;;;8.90;;
35839;SDS011;35514;50.504;30.500;2023-02-01T05:33:50;28.23;;;8.15;;
35839;SDS011;35514;50.504;30.500;2023-02-01T05:36:25;26.63;;;8.00;;
35839;SDS011;35514;50.504;30.500;2023-02-01T05:38:53;20.65;;;8.38;;
35839;SDS011;35514;50.504;30.500;2023-02-01T05:41:44;17.90;;;7.45;;
35839;SDS011;35514;50.504;30.500;2023-02-01T05:44:14;21.55;;;8.50;;
35839;SDS011;35514;50.504;30.500;2023-02-01T05:46:47;35.22;;;8.90;;
35839;SDS011;35514;50.504;30.500;2023-02-01T05:49:47;29.67;;;8.35;;
35839;SDS011;35514;50.504;30.500;2023-02-01T05:52:24;27.33;;;8.35;;
35839;SDS011;35514;50.504;30.500;2023-02-01T05:54:57;22.60;;;8.30;;
35839;SDS011;35514;50.504;30.500;2023-02-01T05:57:27;20.90;;;8.55;;
35839;SDS011;35514;50.504;30.500;2023-02-01T05:59:56;30.58;;;8.60;;
35839;SDS011;35514;50.504;30.500;2023-02-01T06:05:16;33.47;;;8.85;;
35839;SDS011;35514;50.504;30.500;2023-02-01T06:07:44;30.23;;;8.63;;
35839;SDS011;35514;50.504;30.500;2023-02-01T06:10:12;26.33;;;9.02;;
35839;SDS011;35514;50.504;30.500;2023-02-01T06:12:42;26.13;;;9.35;;
35839;SDS011;35514;50.504;30.500;2023-02-01T06:15:11;35.90;;;10.55;;
35839;SDS011;35514;50.504;30.500;2023-02-01T06:17:38;33.25;;;9.32;;
35839;SDS011;35514;50.504;30.500;2023-02-01T06:20:08;27.48;;;9.45;;
35839;SDS011;35514;50.504;30.500;2023-02-01T06:22:38;30.35;;;9.90;;
35839;SDS011;35514;50.504;30.500;2023-02-01T06:25:07;27.23;;;10.45;;
35839;SDS011;35514;50.504;30.500;2023-02-01T06:27:38;38.20;;;12.32;;
35839;SDS011;35514;50.504;30.500;2023-02-01T06:30:06;35.00;;;11.82;;
35839;SDS011;35514;50.504;30.500;2023-02-01T06:32:37;48.08;;;12.02;;
35839;SDS011;35514;50.504;30.500;2023-02-01T06:35:15;41.22;;;13.52;;
35839;SDS011;35514;50.504;30.500;2023-02-01T06:37:44;33.95;;;11.73;;
35839;SDS011;35514;50.504;30.500;2023-02-01T06:40:12;34.88;;;11.30;;
35839;SDS011;35514;50.504;30.500;2023-02-01T06:42:42;35.15;;;10.20;;
35839;SDS011;35514;50.504;30.500;2023-02-01T06:45:13;30.33;;;9.75;;
35839;SDS011;35514;50.504;30.500;2023-02-01T06:47:47;23.92;;;8.13;;
35839;SDS011;35514;50.504;30.500;2023-02-01T06:50:19;28.50;;;7.65;;
35839;SDS011;35514;50.504;30.500;2023-02-01T06:52:53;34.95;;;11.25;;
35839;SDS011;35514;50.504;30.500;2023-02-01T06:55:31;32.22;;;10.15;;
35839;SDS011;35514;50.504;30.500;2023-02-01T06:58:01;26.00;;;8.73;;
35839;SDS011;35514;50.504;30.500;2023-02-01T07:00:29;27.23;;;9.63;;
35839;SDS011;35514;50.504;30.500;2023-02-01T07:02:57;32.55;;;9.90;;
35839;SDS011;35514;50.504;30.500;2023-02-01T07:05:25;23.20;;;8.55;;
35839;SDS011;35514;50.504;30.500;2023-02-01T07:07:54;39.28;;;9.45;;
35839;SDS011;35514;50.504;30.500;2023-02-01T07:10:21;39.47;;;11.55;;
35839;SDS011;35514;50.504;30.500;2023-02-01T07:12:49;39.38;;;12.00;;
35839;SDS011;35514;50.504;30.500;2023-02-01T07:15:19;37.90;;;11.68;;
35839;SDS011;35514;50.504;30.500;2023-02-01T07:17:49;26.48;;;9.93;;
35839;SDS011;35514;50.504;30.500;2023-02-01T07:20:17;26.13;;;9.23;;
35839;SDS011;35514;50.504;30.500;2023-02-01T07:22:44;19.95;;;8.73;;
35839;SDS011;35514;50.504;30.500;2023-02-01T07:25:13;29.60;;;9.00;;
35839;SDS011;35514;50.504;30.500;2023-02-01T07:27:41;25.25;;;8.38;;
35839;SDS011;35514;50.504;30.500;2023-02-01T07:30:09;27.02;;;9.02;;
35839;SDS011;35514;50.504;30.500;2023-02-01T07:32:37;41.10;;;9.45;;
35839;SDS011;35514;50.504;30.500;2023-02-01T07:35:05;24.05;;;8.90;;
35839;SDS011;35514;50.504;30.500;2023-02-01T07:37:32;32.10;;;8.48;;
35839;SDS011;35514;50.504;30.500;2023-02-01T07:40:00;20.98;;;8.57;;
35839;SDS011;35514;50.504;30.500;2023-02-01T07:42:29;26.05;;;9.48;;
35839;SDS011;35514;50.504;30.500;2023-02-01T07:44:56;26.05;;;9.20;;
35839;SDS011;35514;50.504;30.500;2023-02-01T07:47:40;29.67;;;9.07;;
35839;SDS011;35514;50.504;30.500;2023-02-01T07:50:07;29.08;;;9.82;;
35839;SDS011;35514;50.504;30.500;2023-02-01T07:52:35;26.17;;;9.80;;
35839;SDS011;35514;50.504;30.500;2023-02-01T07:55:03;33.67;;;10.23;;
35839;SDS011;35514;50.504;30.500;2023-02-01T07:57:32;36.75;;;10.30;;
35839;SDS011;35514;50.504;30.500;2023-02-01T07:59:59;27.00;;;9.63;;
35839;SDS011;35514;50.504;30.500;2023-02-01T08:02:46;29.80;;;10.05;;
35839;SDS011;35514;50.504;30.500;2023-02-01T08:05:13;29.73;;;9.88;;
35839;SDS011;35514;50.504;30.500;2023-02-01T08:07:41;27.88;;;9.95;;
35839;SDS011;35514;50.504;30.500;2023-02-01T08:10:09;28.50;;;10.32;;
35839;SDS011;35514;50.504;30.500;2023-02-01T08:12:39;36.17;;;9.68;;
35839;SDS011;35514;50.504;30.500;2023-02-01T08:15:07;31.55;;;12.65;;
35839;SDS011;35514;50.504;30.500;2023-02-01T08:17:35;24.73;;;11.00;;
35839;SDS011;35514;50.504;30.500;2023-02-01T08:20:03;29.02;;;9.48;;
35839;SDS011;35514;50.504;30.500;2023-02-01T08:22:31;33.88;;;10.77;;
35839;SDS011;35514;50.504;30.500;2023-02-01T08:24:59;30.30;;;10.77;;
35839;SDS011;35514;50.504;30.500;2023-02-01T08:27:27;36.22;;;11.25;;
35839;SDS011;35514;50.504;30.500;2023-02-01T08:29:56;29.67;;;9.95;;
35839;SDS011;35514;50.504;30.500;2023-02-01T08:32:24;29.73;;;10.40;;
35839;SDS011;35514;50.504;30.500;2023-02-01T08:34:52;33.60;;;9.80;;
35839;SDS011;35514;50.504;30.500;2023-02-01T08:37:19;36.45;;;10.77;;
35839;SDS011;35514;50.504;30.500;2023-02-01T08:39:48;25.55;;;9.98;;
35839;SDS011;35514;50.504;30.500;2023-02-01T08:42:16;30.42;;;8.90;;
35839;SDS011;35514;50.504;30.500;2023-02-01T08:45:03;22.35;;;7.97;;
35839;SDS011;35514;50.504;30.500;2023-02-01T08:47:31;23.98;;;6.80;;
35839;SDS011;35514;50.504;30.500;2023-02-01T08:50:00;26.67;;;9.13;;
35839;SDS011;35514;50.504;30.500;2023-02-01T08:52:28;27.40;;;8.63;;
35839;SDS011;35514;50.504;30.500;2023-02-01T08:54:55;26.50;;;8.90;;
35839;SDS011;35514;50.504;30.500;2023-02-01T08:57:23;23.98;;;7.47;;
35839;SDS011;35514;50.504;30.500;2023-02-01T08:59:50;18.65;;;7.78;;
35839;SDS011;35514;50.504;30.500;2023-02-01T09:02:19;28.65;;;9.13;;
35839;SDS011;35514;50.504;30.500;2023-02-01T09:04:47;16.20;;;8.13;;
35839;SDS011;35514;50.504;30.500;2023-02-01T09:07:14;25.95;;;10.45;;
35839;SDS011;35514;50.504;30.500;2023-02-01T09:09:45;19.90;;;8.43;;
35839;SDS011;35514;50.504;30.500;2023-02-01T09:12:13;19.45;;;7.55;;
35839;SDS011;35514;50.504;30.500;2023-02-01T09:14:41;18.02;;;7.40;;
35839;SDS011;35514;50.504;30.500;2023-02-01T09:17:09;22.38;;;6.22;;
35839;SDS011;35514;50.504;30.500;2023-02-01T09:19:38;20.52;;;7.10;;
35839;SDS011;35514;50.504;30.500;2023-02-01T09:22:08;22.17;;;7.22;;
35839;SDS011;35514;50.504;30.500;2023-02-01T09:24:35;23.00;;;7.10;;
35839;SDS011;35514;50.504;30.500;2023-02-01T09:27:03;23.50;;;7.75;;
35839;SDS011;35514;50.504;30.500;2023-02-01T09:29:31;26.40;;;7.05;;
35839;SDS011;35514;50.504;30.500;2023-02-01T09:31:59;22.83;;;7.22;;
35839;SDS011;35514;50.504;30.500;2023-02-01T09:34:30;17.52;;;6.15;;
35839;SDS011;35514;50.504;30.500;2023-02-01T09:36:59;20.05;;;6.78;;
35839;SDS011;35514;50.504;30.500;2023-02-01T09:39:26;15.70;;;6.15;;
35839;SDS011;35514;50.504;30.500;2023-02-01T09:44:49;14.70;;;5.43;;
35839;SDS011;35514;50.504;30.500;2023-02-01T09:47:21;16.85;;;6.70;;
35839;SDS011;35514;50.504;30.500;2023-02-01T09:49:51;15.30;;;5.00;;
35839;SDS011;35514;50.504;30.500;2023-02-01T09:52:25;17.92;;;6.38;;
35839;SDS011;35514;50.504;30.500;2023-02-01T09:54:55;18.80;;;5.53;;
35839;SDS011;35514;50.504;30.500;2023-02-01T09:57:29;17.65;;;6.30;;
35839;SDS011;35514;50.504;30.500;2023-02-01T10:00:00;23.65;;;5.88;;
35839;SDS011;35514;50.504;30.500;2023-02-01T10:02:41;15.10;;;6.03;;
35839;SDS011;35514;50.504;30.500;2023-02-01T10:05:30;15.25;;;5.82;;
35839;SDS011;35514;50.504;30.500;2023-02-01T10:11:32;19.85;;;5.28;;
35839;SDS011;35514;50.504;30.500;2023-02-01T10:20:29;13.93;;;5.53;;
35839;SDS011;35514;50.504;30.500;2023-02-01T10:23:00;15.32;;;5.38;;
35839;SDS011;35514;50.504;30.500;2023-02-01T10:25:53;16.20;;;5.80;;
35839;SDS011;35514;50.504;30.500;2023-02-01T10:30:57;21.00;;;6.30;;
35839;SDS011;35514;50.504;30.500;2023-02-01T10:33:27;13.63;;;5.97;;
35839;SDS011;35514;50.504;30.500;2023-02-01T10:36:13;26.08;;;6.28;;
35839;SDS011;35514;50.504;30.500;2023-02-01T10:38:43;18.92;;;6.40;;
35839;SDS011;35514;50.504;30.500;2023-02-01T10:41:17;24.90;;;7.00;;
35839;SDS011;35514;50.504;30.500;2023-02-01T10:43:45;23.48;;;6.30;;
35839;SDS011;35514;50.504;30.500;2023-02-01T10:46:16;17.67;;;6.00;;
35839;SDS011;35514;50.504;30.500;2023-02-01T10:48:44;14.02;;;5.45;;
35839;SDS011;35514;50.504;30.500;2023-02-01T10:51:14;16.88;;;6.30;;
35839;SDS011;35514;50.504;30.500;2023-02-01T10:53:42;18.77;;;5.88;;
35839;SDS011;35514;50.504;30.500;2023-02-01T10:56:11;25.35;;;6.03;;
35839;SDS011;35514;50.504;30.500;2023-02-01T10:58:43;18.73;;;6.30;;
35839;SDS011;35514;50.504;30.500;2023-02-01T11:01:15;15.63;;;5.38;;
35839;SDS011;35514;50.504;30.500;2023-02-01T11:03:45;17.02;;;5.47;;
35839;SDS011;35514;50.504;30.500;2023-02-01T11:06:24;13.63;;;5.30;;
35839;SDS011;35514;50.504;30.500;2023-02-01T11:08:54;23.75;;;6.55;;
35839;SDS011;35514;50.504;30.500;2023-02-01T11:11:22;22.58;;;6.88;;
35839;SDS011;35514;50.504;30.500;2023-02-01T11:13:54;20.45;;;6.93;;
35839;SDS011;35514;50.504;30.500;2023-02-01T11:16:28;18.48;;;7.13;;
35839;SDS011;35514;50.504;30.500;2023-02-01T11:18:58;16.52;;;6.68;;
35839;SDS011;35514;50.504;30.500;2023-02-01T11:21:25;21.58;;;6.60;;
35839;SDS011;35514;50.504;30.500;2023-02-01T11:24:16;22.02;;;6.85;;
35839;SDS011;35514;50.504;30.500;2023-02-01T11:26:48;24.30;;;7.47;;
35839;SDS011;35514;50.504;30.500;2023-02-01T11:29:17;18.25;;;7.13;;
35839;SDS011;35514;50.504;30.500;2023-02-01T11:31:46;24.80;;;7.65;;
35839;SDS011;35514;50.504;30.500;2023-02-01T11:34:17;25.92;;;8.38;;
35839;SDS011;35514;50.504;30.500;2023-02-01T11:36:48;28.20;;;8.80;;
35839;SDS011;35514;50.504;30.500;2023-02-01T11:39:18;26.55;;;9.18;;
35839;SDS011;35514;50.504;30.500;2023-02-01T11:41:58;26.65;;;9.43;;
35839;SDS011;35514;50.504;30.500;2023-02-01T11:44:30;28.52;;;9.68;;
35839;SDS011;35514;50.504;30.500;2023-02-01T11:47:16;28.38;;;9.40;;
35839;SDS011;35514;50.504;30.500;2023-02-01T11:49:47;28.95;;;9.18;;
35839;SDS011;35514;50.504;30.500;2023-02-01T11:52:17;33.78;;;10.43;;
35839;SDS011;35514;50.504;30.500;2023-02-01T11:54:51;26.23;;;10.13;;
35839;SDS011;35514;50.504;30.500;2023-02-01T11:57:36;29.95;;;9.27;;
35839;SDS011;35514;50.504;30.500;2023-02-01T12:00:10;25.48;;;9.15;;
35839;SDS011;35514;50.504;30.500;2023-02-01T12:05:34;29.48;;;9.00;;
35839;SDS011;35514;50.504;30.500;2023-02-01T12:08:17;23.85;;;8.00;;
35839;SDS011;35514;50.504;30.500;2023-02-01T12:10:50;28.10;;;9.82;;
35839;SDS011;35514;50.504;30.500;2023-02-01T12:13:21;26.88;;;8.88;;
35839;SDS011;35514;50.504;30.500;2023-02-01T12:15:56;29.33;;;9.82;;
35839;SDS011;35514;50.504;30.500;2023-02-01T12:18:43;27.08;;;10.18;;
35839;SDS011;35514;50.504;30.500;2023-02-01T12:21:22;22.60;;;9.20;;
35839;SDS011;35514;50.504;30.500;2023-02-01T12:24:12;25.55;;;8.48;;
35839;SDS011;35514;50.504;30.500;2023-02-01T12:26:43;20.95;;;8.93;;
35839;SDS011;35514;50.504;30.500;2023-02-01T12:29:15;28.42;;;10.02;;
35839;SDS011;35514;50.504;30.500;2023-02-01T12:31:58;25.42;;;10.00;;
35839;SDS011;35514;50.504;30.500;2023-02-01T12:37:26;20.85;;;7.95;;
35839;SDS011;35514;50.504;30.500;2023-02-01T12:40:00;31.17;;;9.10;;
35839;SDS011;35514;50.504;30.500;2023-02-01T12:42:33;25.63;;;9.15;;
35839;SDS011;35514;50.504;30.500;2023-02-01T12:45:14;20.90;;;8.68;;
35839;SDS011;35514;50.504;30.500;2023-02-01T12:47:43;27.13;;;10.85;;
35839;SDS011;35514;50.504;30.500;2023-02-01T12:50:14;26.83;;;8.82;;
35839;SDS011;35514;50.504;30.500;2023-02-01T12:52:44;29.10;;;9.80;;
35839;SDS011;35514;50.504;30.500;2023-02-01T12:55:15;29.40;;;9.10;;
35839;SDS011;35514;50.504;30.500;2023-02-01T12:57:45;32.72;;;9.63;;
35839;SDS011;35514;50.504;30.500;2023-02-01T13:00:17;34.67;;;11.10;;
35839;SDS011;35514;50.504;30.500;2023-02-01T13:02:51;29.08;;;9.55;;
35839;SDS011;35514;50.504;30.500;2023-02-01T13:05:21;28.88;;;9.93;;
35839;SDS011;35514;50.504;30.500;2023-02-01T13:07:51;28.67;;;9.75;;
35839;SDS011;35514;50.504;30.500;2023-02-01T13:10:26;30.38;;;10.88;;
35839;SDS011;35514;50.504;30.500;2023-02-01T13:12:56;29.92;;;10.02;;
35839;SDS011;35514;50.504;30.500;2023-02-01T13:15:27;26.60;;;9.65;;
35839;SDS011;35514;50.504;30.500;2023-02-01T13:17:58;24.50;;;9.43;;
35839;SDS011;35514;50.504;30.500;2023-02-01T13:20:28;27.63;;;10.27;;
35839;SDS011;35514;50.504;30.500;2023-02-01T13:22:59;30.40;;;10.43;;
35839;SDS011;35514;50.504;30.500;2023-02-01T13:25:30;26.38;;;9.85;;
35839;SDS011;35514;50.504;30.500;2023-02-01T13:28:00;26.52;;;9.80;;
35839;SDS011;35514;50.504;30.500;2023-02-01T13:30:33;31.30;;;9.73;;
35839;SDS011;35514;50.504;30.500;2023-02-01T13:33:06;27.48;;;9.65;;
35839;SDS011;35514;50.504;30.500;2023-02-01T13:36:02;26.10;;;9.85;;
35839;SDS011;35514;50.504;30.500;2023-02-01T13:41:27;23.77;;;9.00;;
35839;SDS011;35514;50.504;30.500;2023-02-01T13:43:55;25.63;;;10.10;;
35839;SDS011;35514;50.504;30.500;2023-02-01T13:46:24;27.33;;;8.95;;
35839;SDS011;35514;50.504;30.500;2023-02-01T13:48:52;29.83;;;10.70;;
35839;SDS011;35514;50.504;30.500;2023-02-01T13:51:34;27.83;;;10.05;;
35839;SDS011;35514;50.504;30.500;2023-02-01T13:54:03;31.05;;;11.20;;
35839;SDS011;35514;50.504;30.500;2023-02-01T13:56:42;37.25;;;12.75;;
35839;SDS011;35514;50.504;30.500;2023-02-01T14:04:46;27.75;;;11.90;;
35839;SDS011;35514;50.504;30.500;2023-02-01T14:07:21;28.35;;;12.57;;
35839;SDS011;35514;50.504;30.500;2023-02-01T14:09:49;39.00;;;12.18;;
35839;SDS011;35514;50.504;30.500;2023-02-01T14:15:26;27.40;;;10.55;;
35839;SDS011;35514;50.504;30.500;2023-02-01T14:17:54;32.67;;;11.07;;
35839;SDS011;35514;50.504;30.500;2023-02-01T14:23:16;28.83;;;11.23;;
35839;SDS011;35514;50.504;30.500;2023-02-01T14:25:44;26.80;;;11.50;;
35839;SDS011;35514;50.504;30.500;2023-02-01T14:28:19;30.42;;;11.93;;
35839;SDS011;35514;50.504;30.500;2023-02-01T14:30:51;34.17;;;11.85;;
35839;SDS011;35514;50.504;30.500;2023-02-01T14:33:20;26.38;;;11.45;;
35839;SDS011;35514;50.504;30.500;2023-02-01T14:36:01;29.20;;;12.27;;
35839;SDS011;35514;50.504;30.500;2023-02-01T14:38:33;35.28;;;13.43;;
35839;SDS011;35514;50.504;30.500;2023-02-01T14:41:12;34.85;;;12.98;;
35839;SDS011;35514;50.504;30.500;2023-02-01T14:43:51;30.67;;;12.65;;
35839;SDS011;35514;50.504;30.500;2023-02-01T14:46:20;34.13;;;13.43;;
35839;SDS011;35514;50.504;30.500;2023-02-01T14:49:07;29.10;;;13.43;;
35839;SDS011;35514;50.504;30.500;2023-02-01T14:51:35;30.67;;;13.85;;
35839;SDS011;35514;50.504;30.500;2023-02-01T14:54:04;28.80;;;13.02;;
35839;SDS011;35514;50.504;30.500;2023-02-01T14:56:32;34.72;;;15.00;;
35839;SDS011;35514;50.504;30.500;2023-02-01T14:59:00;35.47;;;14.65;;
35839;SDS011;35514;50.504;30.500;2023-02-01T15:01:32;32.83;;;14.82;;
35839;SDS011;35514;50.504;30.500;2023-02-01T15:04:01;33.42;;;15.10;;
35839;SDS011;35514;50.504;30.500;2023-02-01T15:06:32;30.85;;;13.27;;
35839;SDS011;35514;50.504;30.500;2023-02-01T15:09:01;30.35;;;13.98;;
35839;SDS011;35514;50.504;30.500;2023-02-01T15:11:29;34.30;;;14.45;;
35839;SDS011;35514;50.504;30.500;2023-02-01T15:13:57;46.97;;;15.63;;
35839;SDS011;35514;50.504;30.500;2023-02-01T15:16:26;33.95;;;12.98;;
35839;SDS011;35514;50.504;30.500;2023-02-01T15:19:08;29.13;;;13.65;;
35839;SDS011;35514;50.504;30.500;2023-02-01T15:21:43;38.20;;;13.80;;
35839;SDS011;35514;50.504;30.500;2023-02-01T15:24:11;26.95;;;13.32;;
35839;SDS011;35514;50.504;30.500;2023-02-01T15:26:39;30.70;;;13.20;;
35839;SDS011;35514;50.504;30.500;2023-02-01T15:29:10;28.23;;;12.50;;
35839;SDS011;35514;50.504;30.500;2023-02-01T15:31:38;34.65;;;13.32;;
35839;SDS011;35514;50.504;30.500;2023-02-01T15:34:08;29.95;;;13.27;;
35839;SDS011;35514;50.504;30.500;2023-02-01T15:36:36;33.00;;;13.40;;
35839;SDS011;35514;50.504;30.500;2023-02-01T15:39:14;36.58;;;13.95;;
35839;SDS011;35514;50.504;30.500;2023-02-01T15:41:45;33.17;;;13.32;;
35839;SDS011;35514;50.504;30.500;2023-02-01T15:44:18;26.77;;;12.70;;
35839;SDS011;35514;50.504;30.500;2023-02-01T15:46:47;30.35;;;12.23;;
35839;SDS011;35514;50.504;30.500;2023-02-01T15:49:19;26.40;;;12.57;;
35839;SDS011;35514;50.504;30.500;2023-02-01T15:51:47;30.30;;;12.10;;
35839;SDS011;35514;50.504;30.500;2023-02-01T15:54:16;24.33;;;10.75;;
35839;SDS011;35514;50.504;30.500;2023-02-01T15:56:49;29.38;;;12.73;;
35839;SDS011;35514;50.504;30.500;2023-02-01T15:59:19;30.58;;;11.38;;
35839;SDS011;35514;50.504;30.500;2023-02-01T16:01:47;32.22;;;11.07;;
35839;SDS011;35514;50.504;30.500;2023-02-01T16:04:16;26.90;;;10.85;;
35839;SDS011;35514;50.504;30.500;2023-02-01T16:06:46;29.23;;;11.65;;
35839;SDS011;35514;50.504;30.500;2023-02-01T19:32:22;27.45;;;11.65;;
35839;SDS011;35514;50.504;30.500;2023-02-01T19:34:49;28.67;;;9.77;;
35839;SDS011;35514;50.504;30.500;2023-02-01T19:37:18;23.00;;;9.40;;
35839;SDS011;35514;50.504;30.500;2023-02-01T19:39:46;27.80;;;10.13;;
35839;SDS011;35514;50.504;30.500;2023-02-01T19:42:13;27.30;;;8.73;;
35839;SDS011;35514;50.504;30.500;2023-02-01T19:44:41;26.17;;;10.32;;
35839;SDS011;35514;50.504;30.500;2023-02-01T19:47:09;37.75;;;10.52;;
35839;SDS011;35514;50.504;30.500;2023-02-01T19:49:38;33.67;;;10.15;;
35839;SDS011;35514;50.504;30.500;2023-02-01T19:52:05;26.38;;;10.27;;
35839;SDS011;35514;50.504;30.500;2023-02-01T19:54:33;21.58;;;10.35;;
35839;SDS011;35514;50.504;30.500;2023-02-01T19:57:00;21.23;;;8.85;;
35839;SDS011;35514;50.504;30.500;2023-02-01T19:59:28;24.27;;;8.45;;
35839;SDS011;35514;50.504;30.500;2023-02-01T20:01:58;25.35;;;8.38;;
35839;SDS011;35514;50.504;30.500;2023-02-01T20:04:27;27.65;;;8.85;;
35839;SDS011;35514;50.504;30.500;2023-02-01T20:06:58;22.50;;;8.63;;
35839;SDS011;35514;50.504;30.500;2023-02-01T20:09:29;35.58;;;10.57;;